createdAt,value
2019-02-26T00:01:00.054Z,0
2019-02-26T00:02:03.955Z,0
2019-02-26T00:03:06.154Z,0
2019-02-26T00:04:08.285Z,0
2019-02-26T00:05:10.388Z,0
2019-02-26T00:06:12.497Z,0
2019-02-26T00:07:32.404Z,0
2019-02-26T00:08:34.931Z,0
2019-02-26T00:09:37.474Z,0
2019-02-26T00:10:40.413Z,0
2019-02-26T00:11:42.516Z,0
2019-02-26T00:12:44.629Z,0
2019-02-26T00:13:58.884Z,0
2019-02-26T00:15:04.054Z,0
2019-02-26T00:16:21.207Z,0
2019-02-26T00:17:23.608Z,0
2019-02-26T00:18:25.710Z,0
2019-02-26T00:19:27.879Z,0
2019-02-26T00:20:41.886Z,0
2019-02-26T00:21:54.860Z,0
2019-02-26T00:23:05.002Z,0
2019-02-26T00:24:17.458Z,0
2019-02-26T00:25:22.052Z,0
2019-02-26T00:26:24.162Z,0
2019-02-26T00:27:35.732Z,0
2019-02-26T00:28:46.801Z,0
2019-02-26T00:29:56.002Z,0
2019-02-26T00:31:06.609Z,0
2019-02-26T00:32:18.890Z,0
2019-02-26T00:33:29.849Z,0
2019-02-26T00:34:41.890Z,0
2019-02-26T00:35:50.936Z,0
2019-02-26T00:36:53.036Z,0
2019-02-26T00:37:57.151Z,0
2019-02-26T00:39:08.033Z,0
2019-02-26T00:40:20.773Z,0
2019-02-26T00:41:36.064Z,0
2019-02-26T00:42:38.190Z,0
2019-02-26T00:43:40.300Z,0
2019-02-26T00:44:42.792Z,0
2019-02-26T00:45:44.921Z,0
2019-02-26T00:46:47.030Z,0
2019-02-26T00:47:49.180Z,0
2019-02-26T00:48:51.309Z,0
2019-02-26T00:49:54.830Z,0
2019-02-26T00:51:03.807Z,0
2019-02-26T00:52:16.136Z,0
2019-02-26T00:53:33.290Z,0
2019-02-26T00:54:37.742Z,0
2019-02-26T00:55:41.026Z,0
2019-02-26T00:56:43.145Z,0
2019-02-26T00:57:45.553Z,0
2019-02-26T00:58:51.515Z,0
2019-02-26T00:59:53.635Z,0
2019-02-26T01:00:55.739Z,0
2019-02-26T01:02:00.794Z,0
2019-02-26T01:03:15.636Z,0
2019-02-26T01:04:17.773Z,0
2019-02-26T01:05:19.875Z,0
2019-02-26T01:06:33.805Z,0
2019-02-26T01:07:35.925Z,0
2019-02-26T01:08:47.576Z,0
2019-02-26T01:09:59.633Z,0
2019-02-26T01:11:09.116Z,0
2019-02-26T01:12:19.100Z,0
2019-02-26T01:13:32.732Z,0
2019-02-26T01:14:34.835Z,0
2019-02-26T01:15:37.246Z,0
2019-02-26T01:16:48.886Z,0
2019-02-26T01:17:51.400Z,0
2019-02-26T01:18:54.519Z,0
2019-02-26T01:20:06.405Z,0
2019-02-26T01:21:08.536Z,0
2019-02-26T01:22:10.647Z,0
2019-02-26T01:23:12.745Z,0
2019-02-26T01:24:14.863Z,0
2019-02-26T01:25:23.898Z,0
2019-02-26T01:26:29.361Z,0
2019-02-26T01:27:31.479Z,0
2019-02-26T01:28:33.596Z,0
2019-02-26T01:29:35.707Z,0
2019-02-26T01:30:38.214Z,0
2019-02-26T01:31:40.337Z,0
2019-02-26T01:32:42.438Z,0
2019-02-26T01:33:50.720Z,0
2019-02-26T01:34:53.385Z,0
2019-02-26T01:36:03.749Z,0
2019-02-26T01:37:12.927Z,0
2019-02-26T01:38:24.510Z,0
2019-02-26T01:39:26.670Z,0
2019-02-26T01:40:28.770Z,0
2019-02-26T01:41:31.183Z,0
2019-02-26T01:42:33.314Z,0
2019-02-26T01:43:35.434Z,0
2019-02-26T01:44:45.302Z,0
2019-02-26T01:45:56.213Z,0
2019-02-26T01:47:05.525Z,0
2019-02-26T01:48:19.327Z,0
2019-02-26T01:49:29.178Z,0
2019-02-26T01:50:41.510Z,0
2019-02-26T01:51:54.675Z,0
2019-02-26T01:53:02.053Z,0
2019-02-26T01:54:16.916Z,0
2019-02-26T01:55:28.628Z,0
2019-02-26T01:56:30.754Z,0
2019-02-26T01:57:32.868Z,0
2019-02-26T01:58:35.397Z,0
2019-02-26T01:59:37.512Z,0
2019-02-26T02:00:42.342Z,0
2019-02-26T02:01:56.437Z,0
2019-02-26T02:02:58.560Z,0
2019-02-26T02:04:00.678Z,0
2019-02-26T02:05:08.394Z,0
2019-02-26T02:06:18.936Z,0
2019-02-26T02:07:31.235Z,0
2019-02-26T02:08:33.346Z,0
2019-02-26T02:09:35.745Z,0
2019-02-26T02:10:37.860Z,0
2019-02-26T02:11:42.083Z,0
2019-02-26T02:12:44.783Z,0
2019-02-26T02:13:46.894Z,0
2019-02-26T02:14:49.004Z,0
2019-02-26T02:15:51.099Z,0
2019-02-26T02:16:53.239Z,0
2019-02-26T02:18:06.639Z,0
2019-02-26T02:19:08.753Z,0
2019-02-26T02:20:22.596Z,0
2019-02-26T02:21:36.158Z,0
2019-02-26T02:22:45.175Z,0
2019-02-26T02:23:53.744Z,0
2019-02-26T02:24:57.007Z,0
2019-02-26T02:26:15.684Z,0
2019-02-26T02:27:33.747Z,0
2019-02-26T02:28:37.258Z,0
2019-02-26T02:29:57.934Z,0
2019-02-26T02:31:00.066Z,0
2019-02-26T02:32:08.706Z,0
2019-02-26T02:33:10.827Z,0
2019-02-26T02:34:12.966Z,0
2019-02-26T02:35:21.059Z,0
2019-02-26T02:36:27.764Z,0
2019-02-26T02:37:33.101Z,0
2019-02-26T02:38:38.720Z,0
2019-02-26T02:39:40.837Z,0
2019-02-26T02:40:55.469Z,0
2019-02-26T02:41:57.870Z,0
2019-02-26T02:43:23.709Z,0
2019-02-26T02:44:26.978Z,0
2019-02-26T02:45:29.089Z,0
2019-02-26T02:46:31.545Z,0
2019-02-26T02:47:39.829Z,0
2019-02-26T02:48:41.938Z,0
2019-02-26T02:49:46.092Z,0
2019-02-26T02:50:48.539Z,0
2019-02-26T02:51:50.962Z,0
2019-02-26T02:53:04.786Z,0
2019-02-26T02:54:06.922Z,0
2019-02-26T02:55:20.823Z,0
2019-02-26T02:56:23.358Z,0
2019-02-26T02:57:35.143Z,0
2019-02-26T02:58:51.959Z,0
2019-02-26T03:00:09.392Z,0
2019-02-26T03:01:22.352Z,0
2019-02-26T03:02:25.075Z,0
2019-02-26T03:03:27.182Z,0
2019-02-26T03:04:36.245Z,0
2019-02-26T03:05:46.963Z,0
2019-02-26T03:07:03.211Z,0
2019-02-26T03:08:05.797Z,0
2019-02-26T03:09:20.242Z,0
2019-02-26T03:10:44.905Z,0
2019-02-26T03:11:55.701Z,0
2019-02-26T03:13:04.315Z,0
2019-02-26T03:14:19.393Z,0
2019-02-26T03:15:36.277Z,0
2019-02-26T03:16:54.026Z,0
2019-02-26T03:17:56.147Z,0
2019-02-26T03:18:58.257Z,0
2019-02-26T03:20:10.819Z,0
2019-02-26T03:21:12.948Z,0
2019-02-26T03:22:23.025Z,0
2019-02-26T03:23:25.455Z,0
2019-02-26T03:24:36.846Z,0
2019-02-26T03:25:38.946Z,0
2019-02-26T03:26:41.061Z,0
2019-02-26T03:27:43.962Z,0
2019-02-26T03:28:54.673Z,0
2019-02-26T03:30:03.159Z,0
2019-02-26T03:31:06.172Z,0
2019-02-26T03:32:09.050Z,0
2019-02-26T03:33:11.946Z,0
2019-02-26T03:34:27.986Z,0
2019-02-26T03:35:30.108Z,0
2019-02-26T03:36:46.107Z,0
2019-02-26T03:38:04.069Z,0
2019-02-26T03:39:07.189Z,0
2019-02-26T03:40:09.854Z,0
2019-02-26T03:41:11.973Z,0
2019-02-26T03:42:21.997Z,0
2019-02-26T03:43:24.416Z,0
2019-02-26T03:44:32.226Z,0
2019-02-26T03:45:34.344Z,0
2019-02-26T03:46:36.451Z,0
2019-02-26T03:47:41.873Z,0
2019-02-26T03:48:44.007Z,0
2019-02-26T03:49:46.117Z,0
2019-02-26T03:50:48.238Z,0
2019-02-26T03:51:50.346Z,0
2019-02-26T03:52:52.480Z,0
2019-02-26T03:53:54.589Z,0
2019-02-26T03:54:57.371Z,0
2019-02-26T03:56:20.652Z,0
2019-02-26T03:57:26.278Z,0
2019-02-26T03:58:28.401Z,0
2019-02-26T03:59:30.520Z,0
2019-02-26T04:00:47.347Z,0
2019-02-26T04:01:49.763Z,0
2019-02-26T04:02:53.359Z,0
2019-02-26T04:04:08.355Z,0
2019-02-26T04:05:10.463Z,0
2019-02-26T04:06:13.529Z,0
2019-02-26T04:07:15.646Z,0
2019-02-26T04:08:30.773Z,0
2019-02-26T04:09:32.898Z,0
2019-02-26T04:10:35.015Z,0
2019-02-26T04:11:48.087Z,0
2019-02-26T04:12:59.069Z,0
2019-02-26T04:14:01.868Z,0
2019-02-26T04:15:04.300Z,0
2019-02-26T04:16:06.998Z,0
2019-02-26T04:17:10.415Z,0
2019-02-26T04:18:12.520Z,0
2019-02-26T04:19:14.658Z,0
2019-02-26T04:20:17.345Z,0
2019-02-26T04:21:22.877Z,0
2019-02-26T04:22:28.341Z,0
2019-02-26T04:23:30.481Z,0
2019-02-26T04:24:39.418Z,0
2019-02-26T04:25:42.265Z,0
2019-02-26T04:26:44.679Z,0
2019-02-26T04:27:46.786Z,0
2019-02-26T04:28:48.937Z,0
2019-02-26T04:29:51.077Z,0
2019-02-26T04:30:53.819Z,0
2019-02-26T04:31:58.953Z,0
2019-02-26T04:33:14.729Z,0
2019-02-26T04:34:17.157Z,0
2019-02-26T04:35:19.247Z,0
2019-02-26T04:36:23.559Z,0
2019-02-26T04:37:39.040Z,0
2019-02-26T04:38:45.515Z,0
2019-02-26T04:39:48.987Z,0
2019-02-26T04:41:02.929Z,0
2019-02-26T04:42:20.956Z,0
2019-02-26T04:43:25.268Z,0
2019-02-26T04:44:35.516Z,0
2019-02-26T04:45:37.899Z,0
2019-02-26T04:46:40.918Z,0
2019-02-26T04:47:44.019Z,0
2019-02-26T04:48:47.652Z,0
2019-02-26T04:49:50.346Z,0
2019-02-26T04:50:52.794Z,0
2019-02-26T04:51:54.911Z,0
2019-02-26T04:53:12.078Z,0
2019-02-26T04:54:39.605Z,0
2019-02-26T04:55:46.297Z,0
2019-02-26T04:56:52.118Z,0
2019-02-26T04:57:55.860Z,0
2019-02-26T04:58:57.987Z,0
2019-02-26T05:00:11.722Z,0
2019-02-26T05:01:20.459Z,0
2019-02-26T05:02:22.567Z,0
2019-02-26T05:03:24.960Z,0
2019-02-26T05:04:42.866Z,0
2019-02-26T05:05:45.402Z,0
2019-02-26T05:06:47.508Z,0
2019-02-26T05:07:51.384Z,0
2019-02-26T05:09:05.382Z,0
2019-02-26T05:10:08.029Z,0
2019-02-26T05:11:40.326Z,0
2019-02-26T05:12:42.718Z,0
2019-02-26T05:13:45.156Z,0
2019-02-26T05:14:47.305Z,0
2019-02-26T05:15:49.449Z,0
2019-02-26T05:16:51.558Z,0
2019-02-26T05:17:53.660Z,0
2019-02-26T05:19:00.015Z,0
2019-02-26T05:20:19.625Z,0
2019-02-26T05:21:24.375Z,0
2019-02-26T05:22:34.313Z,0
2019-02-26T05:23:36.462Z,0
2019-02-26T05:24:53.271Z,0
2019-02-26T05:26:18.574Z,0
2019-02-26T05:27:26.122Z,0
2019-02-26T05:28:48.936Z,0
2019-02-26T05:29:55.949Z,0
2019-02-26T05:30:58.442Z,0
2019-02-26T05:32:09.978Z,0
2019-02-26T05:33:12.426Z,0
2019-02-26T05:34:26.482Z,0
2019-02-26T05:35:29.285Z,0
2019-02-26T05:36:46.967Z,0
2019-02-26T05:37:49.072Z,0
2019-02-26T05:39:02.957Z,0
2019-02-26T05:40:22.537Z,0
2019-02-26T05:41:25.096Z,0
2019-02-26T05:42:27.641Z,0
2019-02-26T05:43:35.108Z,0
2019-02-26T05:44:37.231Z,0
2019-02-26T05:45:39.377Z,0
2019-02-26T05:46:41.498Z,0
2019-02-26T05:47:59.311Z,0
2019-02-26T05:49:14.020Z,0
2019-02-26T05:50:18.724Z,0
2019-02-26T05:51:21.841Z,0
2019-02-26T05:52:36.708Z,0
2019-02-26T05:53:38.808Z,0
2019-02-26T05:54:40.934Z,0
2019-02-26T05:55:56.946Z,0
2019-02-26T05:57:04.133Z,0
2019-02-26T05:58:22.215Z,0
2019-02-26T05:59:24.626Z,0
2019-02-26T06:00:34.447Z,0
2019-02-26T06:01:36.573Z,0
2019-02-26T06:02:51.721Z,0
2019-02-26T06:03:54.118Z,0
2019-02-26T06:04:56.634Z,0
2019-02-26T06:06:02.072Z,0
2019-02-26T06:07:06.331Z,1
2019-02-26T06:08:08.860Z,1
2019-02-26T06:09:10.987Z,1
2019-02-26T06:10:13.110Z,1
2019-02-26T06:11:18.136Z,1
2019-02-26T06:12:20.942Z,1
2019-02-26T06:13:23.066Z,1
2019-02-26T06:14:39.732Z,2
2019-02-26T06:15:41.850Z,2
2019-02-26T06:16:56.484Z,2
2019-02-26T06:17:58.897Z,2
2019-02-26T06:19:01.031Z,2
2019-02-26T06:20:12.323Z,3
2019-02-26T06:21:26.601Z,3
2019-02-26T06:22:35.231Z,3
2019-02-26T06:23:43.050Z,3
2019-02-26T06:24:46.286Z,4
2019-02-26T06:25:48.412Z,4
2019-02-26T06:26:50.533Z,4
2019-02-26T06:27:53.089Z,5
2019-02-26T06:28:55.898Z,5
2019-02-26T06:30:13.088Z,5
2019-02-26T06:31:25.619Z,5
2019-02-26T06:32:45.122Z,6
2019-02-26T06:33:51.474Z,6
2019-02-26T06:34:53.602Z,6
2019-02-26T06:36:06.887Z,7
2019-02-26T06:37:17.506Z,7
2019-02-26T06:38:19.603Z,8
2019-02-26T06:39:36.567Z,8
2019-02-26T06:40:51.936Z,9
2019-02-26T06:41:54.322Z,9
2019-02-26T06:42:56.447Z,9
2019-02-26T06:43:58.568Z,9
2019-02-26T06:45:03.391Z,9
2019-02-26T06:46:14.918Z,10
2019-02-26T06:47:17.032Z,10
2019-02-26T06:48:32.832Z,10
2019-02-26T06:49:34.950Z,11
2019-02-26T06:50:44.320Z,11
2019-02-26T06:51:54.892Z,11
2019-02-26T06:52:57.008Z,11
2019-02-26T06:54:02.651Z,12
2019-02-26T06:55:08.914Z,12
2019-02-26T06:56:11.034Z,12
2019-02-26T06:57:13.158Z,13
2019-02-26T06:58:15.282Z,14
2019-02-26T06:59:17.403Z,14
2019-02-26T07:00:30.074Z,14
2019-02-26T07:01:42.818Z,15
2019-02-26T07:02:47.567Z,15
2019-02-26T07:03:49.701Z,15
2019-02-26T07:04:52.181Z,16
2019-02-26T07:05:54.312Z,16
2019-02-26T07:07:14.637Z,16
2019-02-26T07:08:18.883Z,17
2019-02-26T07:09:21.859Z,17
2019-02-26T07:10:34.660Z,18
2019-02-26T07:11:39.445Z,18
2019-02-26T07:12:51.118Z,18
2019-02-26T07:13:55.120Z,19
2019-02-26T07:14:59.417Z,20
2019-02-26T07:16:06.629Z,20
2019-02-26T07:17:08.738Z,21
2019-02-26T07:18:21.023Z,21
2019-02-26T07:19:23.138Z,21
2019-02-26T07:20:57.685Z,21
2019-02-26T07:22:00.297Z,22
2019-02-26T07:23:13.506Z,23
2019-02-26T07:24:27.861Z,23
2019-02-26T07:25:40.947Z,24
2019-02-26T07:26:49.306Z,24
2019-02-26T07:28:03.327Z,24
2019-02-26T07:29:18.429Z,25
2019-02-26T07:30:20.587Z,29
2019-02-26T07:31:33.152Z,30
2019-02-26T07:32:49.076Z,31
2019-02-26T07:34:03.459Z,29
2019-02-26T07:35:17.674Z,31
2019-02-26T07:36:28.898Z,32
2019-02-26T07:37:41.300Z,34
2019-02-26T07:38:57.056Z,35
2019-02-26T07:39:59.453Z,37
2019-02-26T07:41:07.464Z,38
2019-02-26T07:42:19.850Z,37
2019-02-26T07:43:23.928Z,41
2019-02-26T07:44:29.656Z,45
2019-02-26T07:45:33.571Z,47
2019-02-26T07:46:45.459Z,48
2019-02-26T07:48:01.306Z,49
2019-02-26T07:49:08.837Z,53
2019-02-26T07:50:18.528Z,54
2019-02-26T07:51:20.661Z,52
2019-02-26T07:52:33.647Z,53
2019-02-26T07:53:36.148Z,54
2019-02-26T07:54:52.119Z,51
2019-02-26T07:55:56.321Z,56
2019-02-26T07:57:03.788Z,60
2019-02-26T07:58:18.561Z,63
2019-02-26T07:59:45.032Z,65
2019-02-26T08:00:53.370Z,62
2019-02-26T08:01:55.877Z,63
2019-02-26T08:03:05.442Z,49
2019-02-26T08:04:18.857Z,53
2019-02-26T08:05:29.743Z,60
2019-02-26T08:06:39.261Z,63
2019-02-26T08:07:41.401Z,68
2019-02-26T08:08:49.806Z,71
2019-02-26T08:09:52.196Z,70
2019-02-26T08:10:54.896Z,75
2019-02-26T08:11:57.415Z,78
2019-02-26T08:13:08.605Z,83
2019-02-26T08:14:10.731Z,81
2019-02-26T08:15:17.010Z,72
2019-02-26T08:16:30.530Z,82
2019-02-26T08:17:32.679Z,86
2019-02-26T08:18:35.103Z,86
2019-02-26T08:19:50.239Z,89
2019-02-26T08:21:05.521Z,91
2019-02-26T08:22:07.676Z,94
2019-02-26T08:23:09.782Z,91
2019-02-26T08:24:25.097Z,89
2019-02-26T08:25:27.528Z,89
2019-02-26T08:26:30.512Z,90
2019-02-26T08:27:38.806Z,94
2019-02-26T08:28:49.303Z,94
2019-02-26T08:30:01.811Z,90
2019-02-26T08:31:06.510Z,92
2019-02-26T08:32:08.727Z,93
2019-02-26T08:33:10.878Z,100
2019-02-26T08:34:16.923Z,106
2019-02-26T08:35:20.220Z,108
2019-02-26T08:36:22.354Z,107
2019-02-26T08:37:24.472Z,105
2019-02-26T08:38:31.732Z,109
2019-02-26T08:39:39.461Z,113
2019-02-26T08:40:41.589Z,111
2019-02-26T08:41:43.729Z,107
2019-02-26T08:42:45.846Z,110
2019-02-26T08:43:59.393Z,113
2019-02-26T08:45:01.575Z,113
2019-02-26T08:46:04.024Z,95
2019-02-26T08:47:23.742Z,121
2019-02-26T08:48:28.632Z,118
2019-02-26T08:49:30.761Z,121
2019-02-26T08:50:46.618Z,126
2019-02-26T08:51:48.815Z,129
2019-02-26T08:52:59.460Z,135
2019-02-26T08:54:01.627Z,138
2019-02-26T08:55:04.174Z,140
2019-02-26T08:56:08.641Z,148
2019-02-26T08:57:13.145Z,150
2019-02-26T08:58:15.259Z,147
2019-02-26T08:59:21.242Z,148
2019-02-26T09:00:23.360Z,148
2019-02-26T09:01:25.497Z,155
2019-02-26T09:02:27.888Z,159
2019-02-26T09:03:30.027Z,154
2019-02-26T09:04:32.155Z,156
2019-02-26T09:05:37.932Z,153
2019-02-26T09:06:40.068Z,154
2019-02-26T09:07:51.785Z,157
2019-02-26T09:09:04.527Z,156
2019-02-26T09:10:23.492Z,159
2019-02-26T09:11:39.101Z,157
2019-02-26T09:12:52.891Z,161
2019-02-26T09:14:16.527Z,168
2019-02-26T09:15:19.496Z,174
2019-02-26T09:16:33.284Z,176
2019-02-26T09:17:43.121Z,170
2019-02-26T09:18:45.217Z,169
2019-02-26T09:19:47.354Z,172
2019-02-26T09:20:49.469Z,180
2019-02-26T09:21:55.827Z,180
2019-02-26T09:23:02.607Z,177
2019-02-26T09:24:09.232Z,179
2019-02-26T09:25:11.708Z,183
2019-02-26T09:26:13.844Z,183
2019-02-26T09:27:15.978Z,178
2019-02-26T09:28:19.993Z,176
2019-02-26T09:29:23.890Z,167
2019-02-26T09:30:30.896Z,177
2019-02-26T09:31:33.878Z,169
2019-02-26T09:32:45.822Z,164
2019-02-26T09:33:47.942Z,168
2019-02-26T09:34:54.268Z,182
2019-02-26T09:35:58.376Z,185
2019-02-26T09:37:08.789Z,177
2019-02-26T09:38:22.939Z,183
2019-02-26T09:39:39.556Z,184
2019-02-26T09:40:41.978Z,187
2019-02-26T09:41:46.830Z,194
2019-02-26T09:43:01.154Z,197
2019-02-26T09:44:12.561Z,197
2019-02-26T09:45:30.894Z,202
2019-02-26T09:46:44.489Z,199
2019-02-26T09:48:01.407Z,201
2019-02-26T09:49:13.441Z,204
2019-02-26T09:50:23.820Z,202
2019-02-26T09:51:28.164Z,194
2019-02-26T09:52:33.833Z,196
2019-02-26T09:53:36.021Z,203
2019-02-26T09:54:55.444Z,199
2019-02-26T09:55:57.576Z,179
2019-02-26T09:56:59.724Z,191
2019-02-26T09:58:03.927Z,198
2019-02-26T09:59:15.367Z,196
2019-02-26T10:00:30.277Z,211
2019-02-26T10:01:43.457Z,213
2019-02-26T10:02:52.796Z,212
2019-02-26T10:04:05.920Z,211
2019-02-26T10:05:18.821Z,213
2019-02-26T10:06:24.721Z,218
2019-02-26T10:07:39.116Z,214
2019-02-26T10:08:41.245Z,211
2019-02-26T10:09:49.863Z,211
2019-02-26T10:11:05.310Z,203
2019-02-26T10:12:16.617Z,221
2019-02-26T10:13:28.482Z,240
2019-02-26T10:14:39.496Z,237
2019-02-26T10:15:45.921Z,235
2019-02-26T10:16:57.574Z,239
2019-02-26T10:18:10.175Z,254
2019-02-26T10:19:20.711Z,216
2019-02-26T10:20:32.731Z,183
2019-02-26T10:21:45.357Z,114
2019-02-26T10:22:47.496Z,173
2019-02-26T10:24:04.843Z,197
2019-02-26T10:25:07.045Z,163
2019-02-26T10:26:12.342Z,199
2019-02-26T10:27:17.843Z,243
2019-02-26T10:28:23.490Z,239
2019-02-26T10:29:25.613Z,252
2019-02-26T10:30:42.288Z,250
2019-02-26T10:31:44.432Z,235
2019-02-26T10:32:48.212Z,257
2019-02-26T10:33:52.154Z,216
2019-02-26T10:34:54.585Z,222
2019-02-26T10:35:56.991Z,280
2019-02-26T10:36:59.154Z,276
2019-02-26T10:38:12.886Z,251
2019-02-26T10:39:28.680Z,151
2019-02-26T10:41:02.251Z,109
2019-02-26T10:42:04.399Z,96
2019-02-26T10:43:06.818Z,92
2019-02-26T10:44:09.501Z,91
2019-02-26T10:45:11.687Z,93
2019-02-26T10:46:14.197Z,98
2019-02-26T10:47:16.348Z,102
2019-02-26T10:48:28.885Z,142
2019-02-26T10:49:31.318Z,165
2019-02-26T10:50:33.605Z,136
2019-02-26T10:51:36.053Z,251
2019-02-26T10:52:38.202Z,252
2019-02-26T10:53:41.321Z,206
2019-02-26T10:54:48.000Z,231
2019-02-26T10:55:50.836Z,259
2019-02-26T10:56:53.958Z,250
2019-02-26T10:58:13.956Z,258
2019-02-26T10:59:23.765Z,222
2019-02-26T11:00:39.267Z,201
2019-02-26T11:01:41.780Z,262
2019-02-26T11:02:55.185Z,270
2019-02-26T11:03:58.002Z,270
2019-02-26T11:05:01.023Z,272
2019-02-26T11:06:19.386Z,285
2019-02-26T11:07:22.018Z,270
2019-02-26T11:08:36.142Z,288
2019-02-26T11:09:38.868Z,141
2019-02-26T11:10:53.020Z,135
2019-02-26T11:12:09.163Z,107
2019-02-26T11:13:26.489Z,123
2019-02-26T11:14:37.214Z,174
2019-02-26T11:15:41.245Z,187
2019-02-26T11:16:43.387Z,150
2019-02-26T11:17:56.381Z,146
2019-02-26T11:19:12.793Z,132
2019-02-26T11:20:15.510Z,132
2019-02-26T11:21:17.652Z,139
2019-02-26T11:22:28.723Z,149
2019-02-26T11:23:46.391Z,200
2019-02-26T11:25:01.672Z,246
2019-02-26T11:26:19.211Z,205
2019-02-26T11:27:21.330Z,169
2019-02-26T11:28:45.381Z,138
2019-02-26T11:29:48.298Z,120
2019-02-26T11:30:57.567Z,115
2019-02-26T11:32:10.238Z,109
2019-02-26T11:33:16.779Z,109
2019-02-26T11:34:19.258Z,105
2019-02-26T11:35:28.460Z,106
2019-02-26T11:36:41.670Z,105
2019-02-26T11:37:58.239Z,102
2019-02-26T11:39:12.961Z,101
2019-02-26T11:40:19.767Z,108
2019-02-26T11:41:35.442Z,120
2019-02-26T11:42:39.823Z,154
2019-02-26T11:43:42.585Z,173
2019-02-26T11:44:44.705Z,135
2019-02-26T11:45:46.847Z,109
2019-02-26T11:46:58.559Z,108
2019-02-26T11:48:09.646Z,111
2019-02-26T11:49:22.355Z,102
2019-02-26T11:50:29.550Z,101
2019-02-26T11:51:43.442Z,103
2019-02-26T11:52:45.573Z,108
2019-02-26T11:53:47.712Z,111
2019-02-26T11:54:49.832Z,123
2019-02-26T11:56:02.560Z,134
2019-02-26T11:57:18.587Z,139
2019-02-26T11:58:27.772Z,216
2019-02-26T11:59:42.891Z,139
2019-02-26T12:00:52.619Z,112
2019-02-26T12:02:06.740Z,113
2019-02-26T12:03:08.873Z,116
2019-02-26T12:04:18.211Z,159
2019-02-26T12:05:20.614Z,128
2019-02-26T12:06:22.743Z,141
2019-02-26T12:07:35.708Z,114
2019-02-26T12:08:50.473Z,123
2019-02-26T12:09:52.608Z,106
2019-02-26T12:13:03.165Z,104
2019-02-26T12:14:05.309Z,95
2019-02-26T12:15:16.187Z,92
2019-02-26T12:16:18.587Z,92
2019-02-26T12:17:20.751Z,92
2019-02-26T12:18:23.803Z,92
2019-02-26T12:19:37.656Z,93
2019-02-26T12:20:49.662Z,95
2019-02-26T12:22:06.557Z,98
2019-02-26T12:25:19.541Z,100
2019-02-26T12:26:31.018Z,109
2019-02-26T12:27:35.995Z,108
2019-02-26T12:28:41.470Z,100
2019-02-26T12:29:55.247Z,94
2019-02-26T12:31:13.201Z,103
2019-02-26T12:32:22.265Z,102
2019-02-26T12:33:26.802Z,95
2019-02-26T12:34:29.539Z,100
2019-02-26T12:35:44.179Z,116
2019-02-26T12:37:06.519Z,116
2019-02-26T12:38:22.555Z,226
2019-02-26T12:39:32.342Z,221
2019-02-26T12:40:37.162Z,236
2019-02-26T12:41:48.989Z,236
2019-02-26T12:42:51.152Z,248
2019-02-26T12:43:53.312Z,255
2019-02-26T12:45:14.123Z,271
2019-02-26T12:46:16.253Z,295
2019-02-26T12:47:28.827Z,300
2019-02-26T12:48:30.959Z,298
2019-02-26T12:49:45.782Z,308
2019-02-26T12:50:47.925Z,325
2019-02-26T12:52:04.109Z,305
2019-02-26T12:55:12.310Z,226
2019-02-26T12:56:14.440Z,134
2019-02-26T12:57:32.109Z,136
2019-02-26T12:58:34.243Z,140
2019-02-26T12:59:36.378Z,155
2019-02-26T13:00:43.816Z,257
2019-02-26T13:01:52.863Z,158
2019-02-26T13:02:55.381Z,178
2019-02-26T13:03:57.508Z,201
2019-02-26T13:04:59.951Z,216
2019-02-26T13:06:08.825Z,178
2019-02-26T13:07:12.491Z,185
2019-02-26T13:08:25.381Z,198
2019-02-26T13:09:28.191Z,214
2019-02-26T13:10:30.624Z,214
2019-02-26T13:11:33.035Z,182
2019-02-26T13:12:35.263Z,167
2019-02-26T13:13:37.379Z,180
2019-02-26T13:14:39.519Z,104
2019-02-26T13:15:42.055Z,172
2019-02-26T13:17:00.602Z,134
2019-02-26T13:18:03.175Z,132
2019-02-26T13:19:06.248Z,163
2019-02-26T13:20:12.772Z,155
2019-02-26T13:21:18.771Z,177
2019-02-26T13:22:21.642Z,183
2019-02-26T13:23:24.051Z,184
2019-02-26T13:26:27.553Z,193
2019-02-26T13:27:30.712Z,147
2019-02-26T13:28:32.862Z,149
2019-02-26T13:29:35.396Z,89
2019-02-26T13:30:38.135Z,70
2019-02-26T13:32:01.202Z,74
2019-02-26T13:33:12.890Z,138
2019-02-26T13:34:16.258Z,147
2019-02-26T13:35:19.073Z,147
2019-02-26T13:36:21.524Z,126
2019-02-26T13:37:43.021Z,165
2019-02-26T13:38:50.468Z,160
2019-02-26T13:39:52.639Z,164
2019-02-26T13:41:39.750Z,162
2019-02-26T13:42:42.354Z,185
2019-02-26T13:43:45.143Z,162
2019-02-26T13:44:47.569Z,165
2019-02-26T13:45:49.695Z,153
2019-02-26T13:46:51.869Z,123
2019-02-26T13:48:03.017Z,118
2019-02-26T13:49:05.152Z,94
2019-02-26T13:50:07.286Z,90
2019-02-26T13:51:09.433Z,101
2019-02-26T13:52:11.560Z,123
2019-02-26T13:53:13.691Z,123
2019-02-26T13:54:15.841Z,114
2019-02-26T13:55:19.048Z,109
2019-02-26T13:56:21.255Z,92
2019-02-26T13:57:24.029Z,100
2019-02-26T13:58:26.270Z,129
2019-02-26T13:59:28.519Z,124
2019-02-26T14:00:30.686Z,121
2019-02-26T14:01:32.857Z,134
2019-02-26T14:02:34.995Z,97
2019-02-26T14:03:37.171Z,104
2019-02-26T14:04:39.319Z,123
2019-02-26T14:05:41.470Z,121
2019-02-26T14:06:43.926Z,118
2019-02-26T14:07:46.359Z,118
2019-02-26T14:08:48.782Z,109
2019-02-26T14:09:51.233Z,127
2019-02-26T14:10:54.303Z,124
2019-02-26T14:11:57.353Z,129
2019-02-26T14:12:59.537Z,111
2019-02-26T14:14:01.706Z,72
2019-02-26T14:15:05.141Z,77
2019-02-26T14:16:07.272Z,101
2019-02-26T14:17:09.423Z,115
2019-02-26T14:18:11.592Z,113
2019-02-26T14:19:13.735Z,117
2019-02-26T14:20:16.197Z,112
2019-02-26T14:21:18.727Z,98
2019-02-26T14:22:20.885Z,97
2019-02-26T14:23:23.693Z,95
2019-02-26T14:24:26.258Z,86
2019-02-26T14:25:28.916Z,88
2019-02-26T14:26:31.332Z,98
2019-02-26T14:27:33.486Z,92
2019-02-26T14:28:35.631Z,88
2019-02-26T14:29:37.838Z,105
2019-02-26T14:30:40.268Z,105
2019-02-26T14:31:42.424Z,85
2019-02-26T14:32:44.855Z,60
2019-02-26T14:33:47.034Z,59
2019-02-26T14:34:49.184Z,67
2019-02-26T14:35:51.719Z,70
2019-02-26T14:36:56.579Z,64
2019-02-26T14:37:58.729Z,65
2019-02-26T14:39:01.656Z,74
2019-02-26T14:40:04.217Z,82
2019-02-26T14:41:06.647Z,88
2019-02-26T14:42:08.788Z,85
2019-02-26T14:43:11.228Z,75
2019-02-26T14:44:13.391Z,81
2019-02-26T14:45:15.850Z,74
2019-02-26T14:46:18.007Z,64
2019-02-26T14:47:20.165Z,53
2019-02-26T14:48:22.328Z,46
2019-02-26T14:49:24.498Z,44
2019-02-26T14:50:27.784Z,41
2019-02-26T14:51:30.218Z,43
2019-02-26T14:52:32.629Z,46
2019-02-26T14:53:35.634Z,43
2019-02-26T14:54:38.371Z,39
2019-02-26T14:55:40.815Z,38
2019-02-26T14:56:42.947Z,37
2019-02-26T14:57:45.114Z,36
2019-02-26T14:58:47.253Z,36
2019-02-26T14:59:49.401Z,35
2019-02-26T15:01:01.730Z,35
2019-02-26T15:02:03.903Z,36
2019-02-26T15:03:06.068Z,34
2019-02-26T15:04:08.241Z,33
2019-02-26T15:05:10.398Z,34
2019-02-26T15:06:12.533Z,34
2019-02-26T15:07:14.697Z,32
2019-02-26T15:08:17.128Z,31
2019-02-26T15:09:20.566Z,30
2019-02-26T15:10:22.981Z,30
2019-02-26T15:11:25.112Z,30
2019-02-26T15:12:27.277Z,30
2019-02-26T15:13:29.467Z,30
2019-02-26T15:14:33.342Z,30
2019-02-26T15:15:37.090Z,31
2019-02-26T15:16:40.253Z,31
2019-02-26T15:17:42.821Z,34
2019-02-26T15:18:45.301Z,38
2019-02-26T15:19:54.468Z,38
2019-02-26T15:20:56.627Z,35
2019-02-26T15:21:58.770Z,37
2019-02-26T15:23:01.618Z,36
2019-02-26T15:24:03.826Z,32
2019-02-26T15:25:08.426Z,30
2019-02-26T15:26:11.709Z,29
2019-02-26T15:27:14.068Z,27
2019-02-26T15:28:16.231Z,26
2019-02-26T15:29:18.389Z,26
2019-02-26T15:30:20.545Z,25
2019-02-26T15:31:22.997Z,26
2019-02-26T15:32:25.141Z,25
2019-02-26T15:33:27.288Z,26
2019-02-26T15:34:29.443Z,27
2019-02-26T15:35:31.859Z,27
2019-02-26T15:36:34.050Z,25
2019-02-26T15:37:36.194Z,28
2019-02-26T15:38:38.746Z,28
2019-02-26T15:39:41.340Z,24
2019-02-26T15:40:43.708Z,24
2019-02-26T15:41:48.169Z,23
2019-02-26T15:42:57.440Z,23
2019-02-26T15:43:59.605Z,23
2019-02-26T15:45:02.186Z,25
2019-02-26T15:46:04.614Z,25
2019-02-26T15:47:06.787Z,25
2019-02-26T15:48:08.953Z,22
2019-02-26T15:49:11.105Z,21
2019-02-26T15:50:13.255Z,19
2019-02-26T15:51:21.728Z,19
2019-02-26T15:52:24.153Z,20
2019-02-26T15:53:26.298Z,18
2019-02-26T15:54:29.008Z,17
2019-02-26T15:55:31.690Z,17
2019-02-26T15:56:34.290Z,18
2019-02-26T15:57:37.049Z,19
2019-02-26T15:58:39.578Z,18
2019-02-26T15:59:41.738Z,18
2019-02-26T16:00:44.537Z,18
2019-02-26T16:01:46.693Z,18
2019-02-26T16:02:49.127Z,16
2019-02-26T16:03:51.274Z,15